Xanadu 2 — FGE2475 — position and weather

sailwx.info

Track history (hours):
 
Tides and Currents Weather Stations Pressure Air Temp Water Temp Dewpoint Dewpoint Depression Visibility Wind Speed Wind Dir Waves Ship Positions

Xanadu 2

Last reported at 2017-Sep-30 01:59 UTC. Time now 2017-Oct-19 02:06 UTC.
Position N 47°35' W 003°02'.
Warning: this ship's position is 19 days out of date.

Length 12 m.

Type: Sailing vessel. MMSI: 227619150.

Date/timePositionNaut miles runAvg speedWind from/ knotsBaromVisibWave heightAir tempDewpointWater temp
2017-Sep-30 01:59N 47°35' W 003°02'0 0.0
2017-Sep-30 01:29N 47°35' W 003°02'0 0.0
2017-Sep-30 00:59N 47°35' W 003°02'0 0.0
2017-Sep-30 00:29N 47°35' W 003°02'0 0.0
2017-Sep-29 23:59N 47°35' W 003°02'0 0.0
2017-Sep-29 23:29N 47°35' W 003°02'0 0.0
2017-Sep-29 22:59N 47°35' W 003°02'0 0.0
2017-Sep-29 22:29N 47°35' W 003°02'0 0.0
2017-Sep-29 21:59N 47°35' W 003°02'0 0.0
2017-Sep-29 21:26N 47°35' W 003°02'0 0.0
2017-Sep-29 20:56N 47°35' W 003°02'0 0.0
2017-Sep-29 20:29N 47°35' W 003°02'0 0.0
2017-Sep-29 19:59N 47°35' W 003°02'0 0.0
2017-Sep-29 19:29N 47°35' W 003°02'0 0.0
2017-Sep-29 18:59N 47°35' W 003°02'0 0.0
2017-Sep-29 18:05N 47°35' W 003°02'0 0.0
2017-Sep-29 17:50N 47°35' W 003°02'0 0.0
2017-Sep-29 17:29N 47°35' W 003°02'0 0.0
2017-Sep-29 16:59N 47°35' W 003°02'0 0.0
2017-Sep-29 16:29N 47°35' W 003°02'0 0.0
2017-Sep-29 15:59N 47°35' W 003°02'0 0.0
2017-Sep-29 15:29N 47°35' W 003°02'0 0.0
2017-Sep-29 14:44N 47°35' W 003°02'0 0.0
2017-Sep-29 14:26N 47°35' W 003°02'0 0.0
2017-Sep-29 13:59N 47°35' W 003°02'0 0.0
2017-Sep-29 13:29N 47°35' W 003°02'0 0.0
2017-Sep-29 12:56N 47°35' W 003°02'0 0.0
2017-Sep-29 12:29N 47°35' W 003°02'0 0.0
2017-Sep-29 11:59N 47°35' W 003°02'0 0.0
2017-Sep-29 11:29N 47°35' W 003°02'0 0.0
2017-Sep-29 10:59N 47°35' W 003°02'0 0.0
2017-Sep-29 10:29N 47°35' W 003°02'0 0.0
2017-Sep-29 09:59N 47°35' W 003°02'0 0.0
2017-Sep-29 09:29N 47°35' W 003°02'0 0.0
2017-Sep-29 08:53N 47°35' W 003°02'0 0.0
2017-Sep-29 08:29N 47°35' W 003°02'0 0.0
2017-Sep-29 07:59N 47°35' W 003°02'0 0.0
2017-Sep-29 07:20N 47°35' W 003°02'0 0.0
2017-Sep-29 06:59N 47°35' W 003°02'0 0.0
2017-Sep-29 06:26N 47°35' W 003°02'0 0.0
2017-Sep-29 05:59N 47°35' W 003°02'0 0.0
2017-Sep-29 05:29N 47°35' W 003°02'0 0.0
2017-Sep-29 04:56N 47°35' W 003°02'0 0.0
2017-Sep-29 04:30N 47°35' W 003°01'2 4.9
2017-Sep-29 04:00N 47°33' W 003°01'3 6.4
2017-Sep-29 03:31N 47°30' W 003°01'3 6.2
2017-Sep-29 03:01N 47°27' W 003°00'18 5.4
2017-Sep-28 23:37N 47°10' W 003°12'12 4.9
2017-Sep-28 21:09N 47°02' W 003°26'1 4.6
2017-Sep-28 20:52N 47°01' W 003°27'2 4.8
2017-Sep-28 20:22N 46°60' W 003°30'2 5.5
2017-Sep-28 20:00N 46°58' W 003°32'  
2017-Sep-20 12:11N 39°12' W 009°28'1 6.0
2017-Sep-20 12:00N 39°11' W 009°29'3 6.1
2017-Sep-20 11:29N 39°08' W 009°30'3 6.2
2017-Sep-20 11:00N 39°05' W 009°31'3 6.1
2017-Sep-20 10:30N 39°02' W 009°32'3 6.1
2017-Sep-20 10:00N 38°60' W 009°33'3 6.1
2017-Sep-20 09:30N 38°56' W 009°33'3 6.1
2017-Sep-20 09:00N 38°53' W 009°33'3 6.1
2017-Sep-20 08:30N 38°50' W 009°33'3 6.1
2017-Sep-20 08:00N 38°47' W 009°33'3 5.8
2017-Sep-20 07:30N 38°44' W 009°33'3 5.1
2017-Sep-20 06:58N 38°42' W 009°31'3 6.3
2017-Sep-20 06:30N 38°41' W 009°27'2 3.0
2017-Sep-20 05:58N 38°41' W 009°25'0 0.0
2017-Sep-20 05:25N 38°41' W 009°25'0 0.0
2017-Sep-20 04:49N 38°41' W 009°25'0 0.0
2017-Sep-20 04:25N 38°41' W 009°25'0 0.0
2017-Sep-20 03:58N 38°41' W 009°25'0 0.0
2017-Sep-20 03:01N 38°41' W 009°25'0 0.1
2017-Sep-20 02:58N 38°41' W 009°25'0 0.0
2017-Sep-20 02:25N 38°41' W 009°25'  
Track history (hours):
 
Tides and Currents Weather Stations Pressure Air Temp Water Temp Dewpoint Dewpoint Depression Visibility Wind Speed Wind Dir Waves Ship Positions

Xanadu 2

Last reported at 2017-Sep-30 01:59 UTC. Time now 2017-Oct-19 02:06 UTC.
Position N 47°35' W 003°02'.
Warning: this ship's position is 19 days out of date.

Length 12 m.

Type: Sailing vessel. MMSI: 227619150.

Date/timePositionNaut miles runAvg speedWind from/ knotsBaromVisibWave heightAir tempDewpointWater temp
2017-Sep-30 01:59N 47°35' W 003°02'0 0.0
2017-Sep-30 01:29N 47°35' W 003°02'0 0.0
2017-Sep-30 00:59N 47°35' W 003°02'0 0.0
2017-Sep-30 00:29N 47°35' W 003°02'0 0.0
2017-Sep-29 23:59N 47°35' W 003°02'0 0.0
2017-Sep-29 23:29N 47°35' W 003°02'0 0.0
2017-Sep-29 22:59N 47°35' W 003°02'0 0.0
2017-Sep-29 22:29N 47°35' W 003°02'0 0.0
2017-Sep-29 21:59N 47°35' W 003°02'0 0.0
2017-Sep-29 21:26N 47°35' W 003°02'0 0.0
2017-Sep-29 20:56N 47°35' W 003°02'0 0.0
2017-Sep-29 20:29N 47°35' W 003°02'0 0.0
2017-Sep-29 19:59N 47°35' W 003°02'0 0.0
2017-Sep-29 19:29N 47°35' W 003°02'0 0.0
2017-Sep-29 18:59N 47°35' W 003°02'0 0.0
2017-Sep-29 18:05N 47°35' W 003°02'0 0.0
2017-Sep-29 17:50N 47°35' W 003°02'0 0.0
2017-Sep-29 17:29N 47°35' W 003°02'0 0.0
2017-Sep-29 16:59N 47°35' W 003°02'0 0.0
2017-Sep-29 16:29N 47°35' W 003°02'0 0.0
2017-Sep-29 15:59N 47°35' W 003°02'0 0.0
2017-Sep-29 15:29N 47°35' W 003°02'0 0.0
2017-Sep-29 14:44N 47°35' W 003°02'0 0.0
2017-Sep-29 14:26N 47°35' W 003°02'0 0.0
2017-Sep-29 13:59N 47°35' W 003°02'0 0.0
2017-Sep-29 13:29N 47°35' W 003°02'0 0.0
2017-Sep-29 12:56N 47°35' W 003°02'0 0.0
2017-Sep-29 12:29N 47°35' W 003°02'0 0.0
2017-Sep-29 11:59N 47°35' W 003°02'0 0.0
2017-Sep-29 11:29N 47°35' W 003°02'0 0.0
2017-Sep-29 10:59N 47°35' W 003°02'0 0.0
2017-Sep-29 10:29N 47°35' W 003°02'0 0.0
2017-Sep-29 09:59N 47°35' W 003°02'0 0.0
2017-Sep-29 09:29N 47°35' W 003°02'0 0.0
2017-Sep-29 08:53N 47°35' W 003°02'0 0.0
2017-Sep-29 08:29N 47°35' W 003°02'0 0.0
2017-Sep-29 07:59N 47°35' W 003°02'0 0.0
2017-Sep-29 07:20N 47°35' W 003°02'0 0.0
2017-Sep-29 06:59N 47°35' W 003°02'0 0.0
2017-Sep-29 06:26N 47°35' W 003°02'0 0.0
2017-Sep-29 05:59N 47°35' W 003°02'0 0.0
2017-Sep-29 05:29N 47°35' W 003°02'0 0.0
2017-Sep-29 04:56N 47°35' W 003°02'0 0.0
2017-Sep-29 04:30N 47°35' W 003°01'2 4.9
2017-Sep-29 04:00N 47°33' W 003°01'3 6.4
2017-Sep-29 03:31N 47°30' W 003°01'3 6.2
2017-Sep-29 03:01N 47°27' W 003°00'18 5.4
2017-Sep-28 23:37N 47°10' W 003°12'12 4.9
2017-Sep-28 21:09N 47°02' W 003°26'1 4.6
2017-Sep-28 20:52N 47°01' W 003°27'2 4.8
2017-Sep-28 20:22N 46°60' W 003°30'2 5.5
2017-Sep-28 20:00N 46°58' W 003°32'  
2017-Sep-20 12:11N 39°12' W 009°28'1 6.0
2017-Sep-20 12:00N 39°11' W 009°29'3 6.1
2017-Sep-20 11:29N 39°08' W 009°30'3 6.2
2017-Sep-20 11:00N 39°05' W 009°31'3 6.1
2017-Sep-20 10:30N 39°02' W 009°32'3 6.1
2017-Sep-20 10:00N 38°60' W 009°33'3 6.1
2017-Sep-20 09:30N 38°56' W 009°33'3 6.1
2017-Sep-20 09:00N 38°53' W 009°33'3 6.1
2017-Sep-20 08:30N 38°50' W 009°33'3 6.1
2017-Sep-20 08:00N 38°47' W 009°33'3 5.8
2017-Sep-20 07:30N 38°44' W 009°33'3 5.1
2017-Sep-20 06:58N 38°42' W 009°31'3 6.3
2017-Sep-20 06:30N 38°41' W 009°27'2 3.0
2017-Sep-20 05:58N 38°41' W 009°25'0 0.0
2017-Sep-20 05:25N 38°41' W 009°25'0 0.0
2017-Sep-20 04:49N 38°41' W 009°25'0 0.0
2017-Sep-20 04:25N 38°41' W 009°25'0 0.0
2017-Sep-20 03:58N 38°41' W 009°25'0 0.0
2017-Sep-20 03:01N 38°41' W 009°25'0 0.1
2017-Sep-20 02:58N 38°41' W 009°25'0 0.0
2017-Sep-20 02:25N 38°41' W 009°25'  

Dump ship's entire track history